sensor_id;sensor_type;location;lat;lon;timestamp;pressure;altitude;pressure_sealevel;temperature;humidity
50710;BME280;37033;49.994;21.992;2022-10-31T00:00:32;99706.29;;;8.46;91.68
50710;BME280;37033;49.994;21.992;2022-10-31T00:03:39;99707.56;;;8.43;91.66
50710;BME280;37033;49.994;21.992;2022-10-31T00:06:29;99707.91;;;8.42;91.76
50710;BME280;37033;49.994;21.992;2022-10-31T00:09:19;99706.23;;;8.40;91.85
50710;BME280;37033;49.994;21.992;2022-10-31T00:12:10;99705.36;;;8.37;91.83
50710;BME280;37033;49.994;21.992;2022-10-31T00:15:00;99699.76;;;8.35;91.82
50710;BME280;37033;49.994;21.992;2022-10-31T00:17:50;99692.95;;;8.33;91.86
50710;BME280;37033;49.994;21.992;2022-10-31T00:20:41;99694.09;;;8.30;91.84
50710;BME280;37033;49.994;21.992;2022-10-31T00:23:31;99692.23;;;8.27;92.04
50710;BME280;37033;49.994;21.992;2022-10-31T00:26:21;99696.29;;;8.25;92.14
50710;BME280;37033;49.994;21.992;2022-10-31T00:29:11;99698.60;;;8.22;92.07
50710;BME280;37033;49.994;21.992;2022-10-31T00:32:02;99701.40;;;8.21;92.19
50710;BME280;37033;49.994;21.992;2022-10-31T00:34:52;99704.92;;;8.19;92.22
50710;BME280;37033;49.994;21.992;2022-10-31T00:37:42;99704.88;;;8.17;92.33
50710;BME280;37033;49.994;21.992;2022-10-31T00:40:32;99705.39;;;8.16;92.28
50710;BME280;37033;49.994;21.992;2022-10-31T00:43:23;99704.39;;;8.15;92.39
50710;BME280;37033;49.994;21.992;2022-10-31T00:46:14;99703.89;;;8.15;92.49
50710;BME280;37033;49.994;21.992;2022-10-31T00:49:04;99702.48;;;8.15;92.59
50710;BME280;37033;49.994;21.992;2022-10-31T00:51:55;99703.48;;;8.14;92.61
50710;BME280;37033;49.994;21.992;2022-10-31T00:54:45;99705.50;;;8.12;92.58
50710;BME280;37033;49.994;21.992;2022-10-31T00:57:35;99708.45;;;8.12;92.55
50710;BME280;37033;49.994;21.992;2022-10-31T01:00:25;99707.66;;;8.11;92.55
50710;BME280;37033;49.994;21.992;2022-10-31T01:03:16;99706.14;;;8.10;92.69
50710;BME280;37033;49.994;21.992;2022-10-31T01:06:09;99704.59;;;8.09;92.65
50710;BME280;37033;49.994;21.992;2022-10-31T01:08:59;99704.23;;;8.08;92.67
50710;BME280;37033;49.994;21.992;2022-10-31T01:11:49;99701.91;;;8.07;92.73
50710;BME280;37033;49.994;21.992;2022-10-31T01:14:41;99701.45;;;8.05;92.76
50710;BME280;37033;49.994;21.992;2022-10-31T01:17:32;99696.16;;;8.04;92.67
50710;BME280;37033;49.994;21.992;2022-10-31T01:20:22;99699.34;;;8.02;92.83
50710;BME280;37033;49.994;21.992;2022-10-31T01:23:12;99701.58;;;8.00;92.95
50710;BME280;37033;49.994;21.992;2022-10-31T01:26:08;99702.16;;;7.99;93.07
50710;BME280;37033;49.994;21.992;2022-10-31T01:29:01;99696.13;;;7.98;93.16
50710;BME280;37033;49.994;21.992;2022-10-31T01:31:51;99692.04;;;7.98;93.10
50710;BME280;37033;49.994;21.992;2022-10-31T01:34:42;99695.42;;;7.97;93.06
50710;BME280;37033;49.994;21.992;2022-10-31T01:37:33;99692.13;;;7.96;93.24
50710;BME280;37033;49.994;21.992;2022-10-31T01:40:23;99693.32;;;7.94;93.36
50710;BME280;37033;49.994;21.992;2022-10-31T01:43:15;99692.36;;;7.93;93.41
50710;BME280;37033;49.994;21.992;2022-10-31T01:46:05;99692.24;;;7.91;93.39
50710;BME280;37033;49.994;21.992;2022-10-31T01:48:57;99693.38;;;7.89;93.47
50710;BME280;37033;49.994;21.992;2022-10-31T01:51:54;99694.42;;;7.88;93.48
50710;BME280;37033;49.994;21.992;2022-10-31T01:54:50;99689.56;;;7.87;93.48
50710;BME280;37033;49.994;21.992;2022-10-31T01:57:44;99693.80;;;7.86;93.57
50710;BME280;37033;49.994;21.992;2022-10-31T02:00:37;99692.73;;;7.85;93.58
50710;BME280;37033;49.994;21.992;2022-10-31T02:03:27;99699.02;;;7.85;93.61
50710;BME280;37033;49.994;21.992;2022-10-31T02:06:26;99695.43;;;7.85;93.68
50710;BME280;37033;49.994;21.992;2022-10-31T02:09:18;99692.44;;;7.84;93.75
50710;BME280;37033;49.994;21.992;2022-10-31T02:12:12;99694.07;;;7.84;93.74
50710;BME280;37033;49.994;21.992;2022-10-31T02:15:04;99693.16;;;7.85;93.62
50710;BME280;37033;49.994;21.992;2022-10-31T02:17:55;99690.38;;;7.84;93.66
50710;BME280;37033;49.994;21.992;2022-10-31T02:20:51;99693.25;;;7.83;93.70
50710;BME280;37033;49.994;21.992;2022-10-31T02:27:43;99697.55;;;7.80;93.53
50710;BME280;37033;49.994;21.992;2022-10-31T02:33:38;99696.90;;;7.77;93.58
50710;BME280;37033;49.994;21.992;2022-10-31T02:36:37;99695.41;;;7.75;93.54
50710;BME280;37033;49.994;21.992;2022-10-31T02:39:34;99697.91;;;7.74;93.59
50710;BME280;37033;49.994;21.992;2022-10-31T02:42:31;99697.76;;;7.72;93.58
50710;BME280;37033;49.994;21.992;2022-10-31T02:45:28;99697.55;;;7.70;93.49
50710;BME280;37033;49.994;21.992;2022-10-31T02:48:23;99693.94;;;7.68;93.69
50710;BME280;37033;49.994;21.992;2022-10-31T02:51:16;99694.36;;;7.68;93.69
50710;BME280;37033;49.994;21.992;2022-10-31T02:54:18;99698.02;;;7.68;93.81
50710;BME280;37033;49.994;21.992;2022-10-31T02:57:09;99699.77;;;7.67;93.81
50710;BME280;37033;49.994;21.992;2022-10-31T03:00:02;99700.89;;;7.66;93.83
50710;BME280;37033;49.994;21.992;2022-10-31T03:03:00;99705.03;;;7.65;93.81
50710;BME280;37033;49.994;21.992;2022-10-31T03:05:57;99707.56;;;7.64;93.80
50710;BME280;37033;49.994;21.992;2022-10-31T03:08:54;99715.66;;;7.63;93.76
50710;BME280;37033;49.994;21.992;2022-10-31T03:11:45;99717.52;;;7.61;93.66
50710;BME280;37033;49.994;21.992;2022-10-31T03:14:43;99721.98;;;7.59;93.78
50710;BME280;37033;49.994;21.992;2022-10-31T03:17:40;99725.75;;;7.57;93.75
50710;BME280;37033;49.994;21.992;2022-10-31T03:20:32;99726.71;;;7.55;93.74
50710;BME280;37033;49.994;21.992;2022-10-31T03:23:24;99725.85;;;7.52;93.80
50710;BME280;37033;49.994;21.992;2022-10-31T03:26:15;99726.48;;;7.50;93.74
50710;BME280;37033;49.994;21.992;2022-10-31T03:29:08;99721.48;;;7.48;93.75
50710;BME280;37033;49.994;21.992;2022-10-31T03:32:03;99718.16;;;7.46;93.73
50710;BME280;37033;49.994;21.992;2022-10-31T03:34:57;99719.05;;;7.44;93.69
50710;BME280;37033;49.994;21.992;2022-10-31T03:37:51;99718.17;;;7.41;93.73
50710;BME280;37033;49.994;21.992;2022-10-31T03:40:45;99720.89;;;7.38;93.72
50710;BME280;37033;49.994;21.992;2022-10-31T03:43:40;99725.80;;;7.35;93.64
50710;BME280;37033;49.994;21.992;2022-10-31T03:46:32;99728.45;;;7.32;93.63
50710;BME280;37033;49.994;21.992;2022-10-31T03:49:23;99734.02;;;7.30;93.74
50710;BME280;37033;49.994;21.992;2022-10-31T03:52:18;99729.98;;;7.28;93.81
50710;BME280;37033;49.994;21.992;2022-10-31T03:55:15;99733.61;;;7.27;93.84
50710;BME280;37033;49.994;21.992;2022-10-31T03:58:09;99733.39;;;7.26;93.85
50710;BME280;37033;49.994;21.992;2022-10-31T04:01:02;99738.23;;;7.25;93.88
50710;BME280;37033;49.994;21.992;2022-10-31T04:03:54;99738.98;;;7.23;93.89
50710;BME280;37033;49.994;21.992;2022-10-31T04:06:45;99742.11;;;7.21;93.72
50710;BME280;37033;49.994;21.992;2022-10-31T04:09:38;99739.32;;;7.19;93.78
50710;BME280;37033;49.994;21.992;2022-10-31T04:12:32;99737.40;;;7.18;93.85
50710;BME280;37033;49.994;21.992;2022-10-31T04:15:25;99736.13;;;7.16;93.95
50710;BME280;37033;49.994;21.992;2022-10-31T04:18:16;99733.79;;;7.15;93.93
50710;BME280;37033;49.994;21.992;2022-10-31T04:21:08;99734.76;;;7.13;93.92
50710;BME280;37033;49.994;21.992;2022-10-31T04:23:59;99738.38;;;7.12;94.05
50710;BME280;37033;49.994;21.992;2022-10-31T04:26:49;99738.67;;;7.11;94.04
50710;BME280;37033;49.994;21.992;2022-10-31T04:29:39;99740.13;;;7.09;94.04
50710;BME280;37033;49.994;21.992;2022-10-31T04:32:29;99744.45;;;7.08;93.96
50710;BME280;37033;49.994;21.992;2022-10-31T04:35:20;99739.05;;;7.07;93.93
50710;BME280;37033;49.994;21.992;2022-10-31T04:38:10;99737.21;;;7.05;93.89
50710;BME280;37033;49.994;21.992;2022-10-31T04:41:00;99739.72;;;7.03;93.95
50710;BME280;37033;49.994;21.992;2022-10-31T04:43:51;99742.13;;;7.02;93.98
50710;BME280;37033;49.994;21.992;2022-10-31T04:46:41;99740.64;;;6.99;93.98
50710;BME280;37033;49.994;21.992;2022-10-31T04:49:32;99742.05;;;6.97;94.02
50710;BME280;37033;49.994;21.992;2022-10-31T04:52:22;99746.96;;;6.95;93.89
50710;BME280;37033;49.994;21.992;2022-10-31T04:55:13;99745.76;;;6.92;93.92
50710;BME280;37033;49.994;21.992;2022-10-31T04:58:04;99745.55;;;6.89;93.92
50710;BME280;37033;49.994;21.992;2022-10-31T05:00:55;99744.77;;;6.86;93.93
50710;BME280;37033;49.994;21.992;2022-10-31T05:03:45;99746.47;;;6.83;94.01
50710;BME280;37033;49.994;21.992;2022-10-31T05:06:36;99750.49;;;6.81;94.12
50710;BME280;37033;49.994;21.992;2022-10-31T05:09:26;99753.48;;;6.80;94.30
50710;BME280;37033;49.994;21.992;2022-10-31T05:12:18;99755.65;;;6.79;94.26
50710;BME280;37033;49.994;21.992;2022-10-31T05:15:09;99756.23;;;6.79;94.39
50710;BME280;37033;49.994;21.992;2022-10-31T05:18:00;99759.48;;;6.78;94.43
50710;BME280;37033;49.994;21.992;2022-10-31T05:20:50;99762.52;;;6.78;94.32
50710;BME280;37033;49.994;21.992;2022-10-31T05:23:40;99766.34;;;6.77;94.35
50710;BME280;37033;49.994;21.992;2022-10-31T05:26:31;99765.79;;;6.76;94.33
50710;BME280;37033;49.994;21.992;2022-10-31T05:29:21;99770.33;;;6.74;94.26
50710;BME280;37033;49.994;21.992;2022-10-31T05:32:12;99771.00;;;6.73;94.28
50710;BME280;37033;49.994;21.992;2022-10-31T05:35:02;99775.89;;;6.73;94.24
50710;BME280;37033;49.994;21.992;2022-10-31T05:37:53;99778.10;;;6.72;94.30
50710;BME280;37033;49.994;21.992;2022-10-31T05:40:43;99776.92;;;6.73;94.33
50710;BME280;37033;49.994;21.992;2022-10-31T05:43:33;99780.17;;;6.73;94.41
50710;BME280;37033;49.994;21.992;2022-10-31T05:46:23;99784.45;;;6.73;94.46
50710;BME280;37033;49.994;21.992;2022-10-31T05:49:13;99784.66;;;6.75;94.55
50710;BME280;37033;49.994;21.992;2022-10-31T05:52:05;99780.72;;;6.76;94.69
50710;BME280;37033;49.994;21.992;2022-10-31T05:54:55;99785.84;;;6.80;94.78
50710;BME280;37033;49.994;21.992;2022-10-31T05:57:46;99786.77;;;6.83;94.89
50710;BME280;37033;49.994;21.992;2022-10-31T06:00:36;99787.34;;;6.87;95.04
50710;BME280;37033;49.994;21.992;2022-10-31T06:03:26;99790.83;;;6.92;95.18
50710;BME280;37033;49.994;21.992;2022-10-31T06:06:17;99794.73;;;6.96;95.17
50710;BME280;37033;49.994;21.992;2022-10-31T06:09:07;99795.03;;;7.01;95.25
50710;BME280;37033;49.994;21.992;2022-10-31T06:11:57;99796.73;;;7.04;95.18
50710;BME280;37033;49.994;21.992;2022-10-31T06:14:47;99797.10;;;7.08;95.14
50710;BME280;37033;49.994;21.992;2022-10-31T06:17:37;99796.52;;;7.11;95.24
50710;BME280;37033;49.994;21.992;2022-10-31T06:20:28;99790.23;;;7.15;95.24
50710;BME280;37033;49.994;21.992;2022-10-31T06:23:18;99790.83;;;7.19;95.25
50710;BME280;37033;49.994;21.992;2022-10-31T06:26:08;99794.48;;;7.22;95.22
50710;BME280;37033;49.994;21.992;2022-10-31T06:28:59;99797.89;;;7.25;95.28
50710;BME280;37033;49.994;21.992;2022-10-31T06:31:52;99800.96;;;7.29;95.29
50710;BME280;37033;49.994;21.992;2022-10-31T06:34:43;99806.57;;;7.31;95.30
50710;BME280;37033;49.994;21.992;2022-10-31T06:37:33;99807.56;;;7.35;95.29
50710;BME280;37033;49.994;21.992;2022-10-31T06:40:24;99805.35;;;7.39;95.23
50710;BME280;37033;49.994;21.992;2022-10-31T06:43:14;99808.84;;;7.43;95.28
50710;BME280;37033;49.994;21.992;2022-10-31T06:46:06;99809.08;;;7.51;95.53
50710;BME280;37033;49.994;21.992;2022-10-31T06:48:56;99806.03;;;7.58;95.59
50710;BME280;37033;49.994;21.992;2022-10-31T06:51:48;99808.14;;;7.62;95.44
50710;BME280;37033;49.994;21.992;2022-10-31T06:54:39;99804.50;;;7.66;95.52
50710;BME280;37033;49.994;21.992;2022-10-31T06:57:29;99807.58;;;7.71;95.59
50710;BME280;37033;49.994;21.992;2022-10-31T07:00:20;99807.27;;;7.78;95.56
50710;BME280;37033;49.994;21.992;2022-10-31T07:03:12;99805.66;;;7.84;95.76
50710;BME280;37033;49.994;21.992;2022-10-31T07:06:04;99804.86;;;7.90;95.88
50710;BME280;37033;49.994;21.992;2022-10-31T07:08:54;99809.98;;;7.96;95.86
50710;BME280;37033;49.994;21.992;2022-10-31T07:11:44;99811.38;;;8.02;95.93
50710;BME280;37033;49.994;21.992;2022-10-31T07:14:35;99810.91;;;8.08;96.00
50710;BME280;37033;49.994;21.992;2022-10-31T07:17:26;99811.42;;;8.15;96.09
50710;BME280;37033;49.994;21.992;2022-10-31T07:20:16;99818.09;;;8.22;96.00
50710;BME280;37033;49.994;21.992;2022-10-31T07:23:07;99820.64;;;8.28;95.94
50710;BME280;37033;49.994;21.992;2022-10-31T07:25:58;99818.25;;;8.33;96.00
50710;BME280;37033;49.994;21.992;2022-10-31T07:28:49;99817.64;;;8.40;95.89
50710;BME280;37033;49.994;21.992;2022-10-31T07:31:39;99821.73;;;8.47;95.95
50710;BME280;37033;49.994;21.992;2022-10-31T07:34:30;99819.67;;;8.55;96.06
50710;BME280;37033;49.994;21.992;2022-10-31T07:37:20;99822.24;;;8.62;96.14
50710;BME280;37033;49.994;21.992;2022-10-31T07:40:12;99830.59;;;8.69;96.10
50710;BME280;37033;49.994;21.992;2022-10-31T07:43:03;99830.45;;;8.76;96.13
50710;BME280;37033;49.994;21.992;2022-10-31T07:45:53;99827.77;;;8.84;96.31
50710;BME280;37033;49.994;21.992;2022-10-31T07:48:44;99824.71;;;8.91;96.19
50710;BME280;37033;49.994;21.992;2022-10-31T07:51:34;99821.03;;;9.00;96.28
50710;BME280;37033;49.994;21.992;2022-10-31T07:54:24;99818.88;;;9.08;96.27
50710;BME280;37033;49.994;21.992;2022-10-31T07:57:15;99817.04;;;9.17;96.39
50710;BME280;37033;49.994;21.992;2022-10-31T08:00:07;99817.42;;;9.25;96.37
50710;BME280;37033;49.994;21.992;2022-10-31T08:03:02;99819.14;;;9.35;96.47
50710;BME280;37033;49.994;21.992;2022-10-31T08:05:54;99822.61;;;9.43;96.40
50710;BME280;37033;49.994;21.992;2022-10-31T08:08:44;99818.73;;;9.52;96.23
50710;BME280;37033;49.994;21.992;2022-10-31T08:11:34;99824.16;;;9.60;96.14
50710;BME280;37033;49.994;21.992;2022-10-31T08:14:25;99823.70;;;9.68;96.13
50710;BME280;37033;49.994;21.992;2022-10-31T08:17:15;99827.27;;;9.77;96.23
50710;BME280;37033;49.994;21.992;2022-10-31T08:20:06;99821.95;;;9.86;96.14
50710;BME280;37033;49.994;21.992;2022-10-31T08:23:00;99822.77;;;9.96;96.13
50710;BME280;37033;49.994;21.992;2022-10-31T08:25:51;99823.80;;;10.07;96.01
50710;BME280;37033;49.994;21.992;2022-10-31T08:28:41;99826.52;;;10.18;96.00
50710;BME280;37033;49.994;21.992;2022-10-31T08:31:32;99832.31;;;10.27;95.87
50710;BME280;37033;49.994;21.992;2022-10-31T08:34:22;99839.08;;;10.36;95.83
50710;BME280;37033;49.994;21.992;2022-10-31T08:37:13;99841.64;;;10.45;95.58
50710;BME280;37033;49.994;21.992;2022-10-31T08:40:10;99843.10;;;10.57;95.53
50710;BME280;37033;49.994;21.992;2022-10-31T08:43:03;99846.83;;;10.66;95.36
50710;BME280;37033;49.994;21.992;2022-10-31T08:45:53;99843.08;;;10.74;95.18
50710;BME280;37033;49.994;21.992;2022-10-31T08:48:43;99838.56;;;10.82;95.14
50710;BME280;37033;49.994;21.992;2022-10-31T08:51:34;99839.41;;;10.92;95.17
50710;BME280;37033;49.994;21.992;2022-10-31T08:54:24;99837.59;;;11.02;95.13
50710;BME280;37033;49.994;21.992;2022-10-31T08:57:14;99837.44;;;11.11;94.91
50710;BME280;37033;49.994;21.992;2022-10-31T09:00:06;99836.34;;;11.19;94.88
50710;BME280;37033;49.994;21.992;2022-10-31T09:03:01;99836.80;;;11.27;94.67
50710;BME280;37033;49.994;21.992;2022-10-31T09:05:56;99837.45;;;11.38;94.66
50710;BME280;37033;49.994;21.992;2022-10-31T09:08:47;99833.66;;;11.49;94.47
50710;BME280;37033;49.994;21.992;2022-10-31T09:11:37;99827.67;;;11.58;94.23
50710;BME280;37033;49.994;21.992;2022-10-31T09:14:27;99828.17;;;11.66;94.09
50710;BME280;37033;49.994;21.992;2022-10-31T09:17:17;99824.60;;;11.74;93.86
50710;BME280;37033;49.994;21.992;2022-10-31T09:20:09;99822.55;;;11.82;93.89
50710;BME280;37033;49.994;21.992;2022-10-31T09:23:03;99825.27;;;11.92;93.75
50710;BME280;37033;49.994;21.992;2022-10-31T09:25:54;99825.72;;;12.01;93.51
50710;BME280;37033;49.994;21.992;2022-10-31T09:28:44;99823.61;;;12.10;93.36
50710;BME280;37033;49.994;21.992;2022-10-31T09:31:35;99820.52;;;12.20;93.11
50710;BME280;37033;49.994;21.992;2022-10-31T09:34:25;99820.99;;;12.27;92.94
50710;BME280;37033;49.994;21.992;2022-10-31T09:37:15;99822.50;;;12.36;92.72
50710;BME280;37033;49.994;21.992;2022-10-31T09:40:07;99819.92;;;12.44;92.57
50710;BME280;37033;49.994;21.992;2022-10-31T09:43:05;99825.63;;;12.54;92.29
50710;BME280;37033;49.994;21.992;2022-10-31T09:46:03;99823.59;;;12.65;91.94
50710;BME280;37033;49.994;21.992;2022-10-31T09:49:16;99823.90;;;12.75;91.50
50710;BME280;37033;49.994;21.992;2022-10-31T09:52:16;99822.66;;;12.87;91.52
50710;BME280;37033;49.994;21.992;2022-10-31T09:55:15;99826.11;;;12.97;90.89
50710;BME280;37033;49.994;21.992;2022-10-31T09:58:10;99827.66;;;13.11;89.85
50710;BME280;37033;49.994;21.992;2022-10-31T10:01:04;99826.15;;;13.21;89.74
50710;BME280;37033;49.994;21.992;2022-10-31T10:03:59;99821.80;;;13.32;89.67
50710;BME280;37033;49.994;21.992;2022-10-31T10:06:52;99825.33;;;13.40;89.81
50710;BME280;37033;49.994;21.992;2022-10-31T10:09:43;99824.05;;;13.49;89.70
50710;BME280;37033;49.994;21.992;2022-10-31T10:12:56;99825.20;;;13.60;89.17
50710;BME280;37033;49.994;21.992;2022-10-31T10:16:00;99826.23;;;13.73;88.92
50710;BME280;37033;49.994;21.992;2022-10-31T10:19:01;99819.69;;;13.84;88.58
50710;BME280;37033;49.994;21.992;2022-10-31T10:22:01;99819.09;;;13.96;88.29
50710;BME280;37033;49.994;21.992;2022-10-31T10:25:02;99820.87;;;14.09;87.98
50710;BME280;37033;49.994;21.992;2022-10-31T10:28:07;99817.68;;;14.15;87.53
50710;BME280;37033;49.994;21.992;2022-10-31T10:31:03;99818.57;;;14.21;87.31
50710;BME280;37033;49.994;21.992;2022-10-31T10:34:01;99816.63;;;14.28;86.91
50710;BME280;37033;49.994;21.992;2022-10-31T10:36:56;99818.42;;;14.36;86.80
50710;BME280;37033;49.994;21.992;2022-10-31T10:39:50;99814.20;;;14.45;86.15
50710;BME280;37033;49.994;21.992;2022-10-31T10:42:43;99813.24;;;14.52;86.19
50710;BME280;37033;49.994;21.992;2022-10-31T10:46:03;99808.17;;;14.62;85.80
50710;BME280;37033;49.994;21.992;2022-10-31T10:49:18;99808.11;;;14.70;84.99
50710;BME280;37033;49.994;21.992;2022-10-31T10:52:13;99811.59;;;14.81;85.21
50710;BME280;37033;49.994;21.992;2022-10-31T10:55:12;99812.26;;;14.87;85.21
50710;BME280;37033;49.994;21.992;2022-10-31T10:58:08;99807.32;;;14.92;85.09
50710;BME280;37033;49.994;21.992;2022-10-31T11:00:59;99810.70;;;14.96;84.57
50710;BME280;37033;49.994;21.992;2022-10-31T11:03:49;99804.62;;;15.03;84.01
50710;BME280;37033;49.994;21.992;2022-10-31T11:06:39;99805.44;;;15.08;83.48
50710;BME280;37033;49.994;21.992;2022-10-31T11:09:30;99803.86;;;15.16;83.29
50710;BME280;37033;49.994;21.992;2022-10-31T11:12:22;99801.89;;;15.24;83.18
50710;BME280;37033;49.994;21.992;2022-10-31T11:15:25;99797.77;;;15.29;83.09
50710;BME280;37033;49.994;21.992;2022-10-31T11:18:21;99801.24;;;15.39;82.97
50710;BME280;37033;49.994;21.992;2022-10-31T11:21:24;99799.31;;;15.46;82.76
50710;BME280;37033;49.994;21.992;2022-10-31T11:24:17;99797.61;;;15.54;82.51
50710;BME280;37033;49.994;21.992;2022-10-31T11:27:15;99793.66;;;15.63;82.35
50710;BME280;37033;49.994;21.992;2022-10-31T11:30:09;99791.11;;;15.68;81.57
50710;BME280;37033;49.994;21.992;2022-10-31T11:33:00;99788.42;;;15.73;81.46
50710;BME280;37033;49.994;21.992;2022-10-31T11:35:50;99783.09;;;15.78;81.12
50710;BME280;37033;49.994;21.992;2022-10-31T11:38:44;99786.13;;;15.82;81.04
50710;BME280;37033;49.994;21.992;2022-10-31T11:41:36;99789.23;;;15.90;80.77
50710;BME280;37033;49.994;21.992;2022-10-31T11:44:28;99786.79;;;15.96;80.60
50710;BME280;37033;49.994;21.992;2022-10-31T11:47:25;99788.23;;;16.02;80.38
50710;BME280;37033;49.994;21.992;2022-10-31T11:50:22;99787.06;;;16.08;79.98
50710;BME280;37033;49.994;21.992;2022-10-31T11:53:17;99788.52;;;16.17;79.62
50710;BME280;37033;49.994;21.992;2022-10-31T11:56:10;99787.07;;;16.23;79.10
50710;BME280;37033;49.994;21.992;2022-10-31T11:59:05;99784.45;;;16.27;79.59
50710;BME280;37033;49.994;21.992;2022-10-31T12:02:14;99784.67;;;16.31;79.53
50710;BME280;37033;49.994;21.992;2022-10-31T12:08:17;99779.52;;;16.36;79.24
50710;BME280;37033;49.994;21.992;2022-10-31T12:11:15;99775.33;;;16.42;79.23
50710;BME280;37033;49.994;21.992;2022-10-31T12:14:14;99772.64;;;16.47;78.93
50710;BME280;37033;49.994;21.992;2022-10-31T12:17:11;99776.33;;;16.51;78.62
50710;BME280;37033;49.994;21.992;2022-10-31T12:20:10;99776.23;;;16.54;78.51
50710;BME280;37033;49.994;21.992;2022-10-31T12:23:14;99776.23;;;16.59;78.34
50710;BME280;37033;49.994;21.992;2022-10-31T12:26:16;99772.67;;;16.62;78.20
50710;BME280;37033;49.994;21.992;2022-10-31T12:29:29;99776.35;;;16.63;78.35
50710;BME280;37033;49.994;21.992;2022-10-31T12:32:31;99770.80;;;16.67;78.06
50710;BME280;37033;49.994;21.992;2022-10-31T12:35:38;99773.17;;;16.69;77.92
50710;BME280;37033;49.994;21.992;2022-10-31T12:38:46;99770.15;;;16.72;77.65
50710;BME280;37033;49.994;21.992;2022-10-31T12:41:49;99770.23;;;16.79;77.32
50710;BME280;37033;49.994;21.992;2022-10-31T12:44:58;99774.70;;;16.86;76.89
50710;BME280;37033;49.994;21.992;2022-10-31T12:48:04;99771.85;;;16.93;76.22
50710;BME280;37033;49.994;21.992;2022-10-31T12:51:01;99771.69;;;16.98;75.93
50710;BME280;37033;49.994;21.992;2022-10-31T12:54:10;99766.42;;;17.02;75.76
50710;BME280;37033;49.994;21.992;2022-10-31T12:57:16;99769.00;;;17.06;75.90
50710;BME280;37033;49.994;21.992;2022-10-31T13:00:16;99761.32;;;17.08;75.61
50710;BME280;37033;49.994;21.992;2022-10-31T13:03:26;99761.20;;;17.09;75.63
50710;BME280;37033;49.994;21.992;2022-10-31T13:06:21;99756.20;;;17.12;75.55
50710;BME280;37033;49.994;21.992;2022-10-31T13:09:15;99757.62;;;17.14;75.49
50710;BME280;37033;49.994;21.992;2022-10-31T13:12:10;99759.76;;;17.16;75.43
50710;BME280;37033;49.994;21.992;2022-10-31T13:15:05;99757.35;;;17.18;75.59
50710;BME280;37033;49.994;21.992;2022-10-31T13:18:06;99754.77;;;17.19;75.49
50710;BME280;37033;49.994;21.992;2022-10-31T13:21:03;99753.49;;;17.20;75.52
50710;BME280;37033;49.994;21.992;2022-10-31T13:24:00;99756.48;;;17.21;75.47
50710;BME280;37033;49.994;21.992;2022-10-31T13:26:55;99752.95;;;17.21;75.16
50710;BME280;37033;49.994;21.992;2022-10-31T13:30:01;99750.33;;;17.19;75.26
50710;BME280;37033;49.994;21.992;2022-10-31T13:32:55;99748.05;;;17.17;75.38
50710;BME280;37033;49.994;21.992;2022-10-31T13:35:51;99746.56;;;17.16;75.41
50710;BME280;37033;49.994;21.992;2022-10-31T13:38:42;99745.97;;;17.14;75.33
50710;BME280;37033;49.994;21.992;2022-10-31T13:41:43;99742.73;;;17.13;75.57
50710;BME280;37033;49.994;21.992;2022-10-31T13:44:36;99746.36;;;17.12;75.44
50710;BME280;37033;49.994;21.992;2022-10-31T13:47:28;99744.67;;;17.12;75.19
50710;BME280;37033;49.994;21.992;2022-10-31T13:50:24;99745.33;;;17.10;75.13
50710;BME280;37033;49.994;21.992;2022-10-31T13:53:21;99748.95;;;17.09;75.12
50710;BME280;37033;49.994;21.992;2022-10-31T13:56:20;99751.53;;;17.06;75.09
50710;BME280;37033;49.994;21.992;2022-10-31T13:59:20;99752.27;;;17.02;75.14
50710;BME280;37033;49.994;21.992;2022-10-31T14:02:17;99752.42;;;16.99;75.13
50710;BME280;37033;49.994;21.992;2022-10-31T14:05:23;99753.67;;;16.97;75.09
50710;BME280;37033;49.994;21.992;2022-10-31T14:08:20;99758.67;;;16.95;74.85
50710;BME280;37033;49.994;21.992;2022-10-31T14:11:21;99755.92;;;16.92;74.92
50710;BME280;37033;49.994;21.992;2022-10-31T14:14:13;99755.16;;;16.89;74.84
50710;BME280;37033;49.994;21.992;2022-10-31T14:17:04;99758.11;;;16.87;74.82
50710;BME280;37033;49.994;21.992;2022-10-31T14:23:34;99756.45;;;16.79;74.89
50710;BME280;37033;49.994;21.992;2022-10-31T14:26:38;99755.45;;;16.75;75.04
50710;BME280;37033;49.994;21.992;2022-10-31T14:29:30;99756.94;;;16.70;74.99
50710;BME280;37033;49.994;21.992;2022-10-31T14:32:23;99753.19;;;16.64;75.03
50710;BME280;37033;49.994;21.992;2022-10-31T14:35:17;99752.31;;;16.58;74.99
50710;BME280;37033;49.994;21.992;2022-10-31T14:38:26;99755.09;;;16.53;75.20
50710;BME280;37033;49.994;21.992;2022-10-31T14:41:30;99748.23;;;16.47;74.97
50710;BME280;37033;49.994;21.992;2022-10-31T14:44:47;99750.95;;;16.40;75.19
50710;BME280;37033;49.994;21.992;2022-10-31T14:47:49;99747.15;;;16.33;75.37
50710;BME280;37033;49.994;21.992;2022-10-31T14:50:49;99746.59;;;16.25;75.26
50710;BME280;37033;49.994;21.992;2022-10-31T14:53:46;99749.42;;;16.18;75.52
50710;BME280;37033;49.994;21.992;2022-10-31T14:56:40;99748.45;;;16.08;75.53
50710;BME280;37033;49.994;21.992;2022-10-31T14:59:37;99748.91;;;15.97;75.68
50710;BME280;37033;49.994;21.992;2022-10-31T15:02:33;99751.88;;;15.86;75.73
50710;BME280;37033;49.994;21.992;2022-10-31T15:05:27;99752.09;;;15.74;75.88
50710;BME280;37033;49.994;21.992;2022-10-31T15:08:32;99754.09;;;15.62;75.99
50710;BME280;37033;49.994;21.992;2022-10-31T15:11:24;99751.00;;;15.50;76.14
50710;BME280;37033;49.994;21.992;2022-10-31T15:14:24;99753.84;;;15.38;76.31
50710;BME280;37033;49.994;21.992;2022-10-31T15:17:14;99759.30;;;15.28;76.32
50710;BME280;37033;49.994;21.992;2022-10-31T15:20:07;99760.33;;;15.17;76.41
50710;BME280;37033;49.994;21.992;2022-10-31T15:22:58;99759.11;;;15.08;76.34
50710;BME280;37033;49.994;21.992;2022-10-31T15:25:49;99768.93;;;14.98;76.41
50710;BME280;37033;49.994;21.992;2022-10-31T15:28:40;99767.96;;;14.87;76.55